createdAt,value
2019-01-23T00:01:46.800Z,43.00
2019-01-23T00:04:17.010Z,40.63
2019-01-23T00:06:47.173Z,42.77
2019-01-23T00:09:17.223Z,42.47
2019-01-23T00:11:47.988Z,42.90
2019-01-23T00:14:37.154Z,42.30
2019-01-23T00:17:07.237Z,43.03
2019-01-23T00:19:37.475Z,43.53
2019-01-23T00:22:07.490Z,42.97
2019-01-23T00:24:37.672Z,43.63
2019-01-23T00:27:07.808Z,41.97
2019-01-23T00:29:38.006Z,42.87
2019-01-23T00:32:08.093Z,44.10
2019-01-23T00:34:38.206Z,44.27
2019-01-23T00:37:08.343Z,40.77
2019-01-23T00:39:38.907Z,43.67
2019-01-23T00:42:08.959Z,40.53
2019-01-23T00:44:39.086Z,42.77
2019-01-23T00:47:09.159Z,41.23
2019-01-23T00:49:39.572Z,40.67
2019-01-23T00:52:09.768Z,39.90
2019-01-23T00:54:42.329Z,42.93
2019-01-23T00:57:12.370Z,40.63
2019-01-23T00:59:42.904Z,40.23
2019-01-23T01:02:12.988Z,39.83
2019-01-23T01:04:43.659Z,40.00
2019-01-23T01:07:13.833Z,41.73
2019-01-23T01:09:44.649Z,39.50
2019-01-23T01:12:14.776Z,39.63
2019-01-23T01:14:45.229Z,42.50
2019-01-23T01:17:15.342Z,42.17
2019-01-23T01:19:45.613Z,41.80
2019-01-23T01:22:15.727Z,40.33
2019-01-23T01:24:45.881Z,40.73
2019-01-23T01:27:15.994Z,43.10
2019-01-23T01:29:46.104Z,42.80
2019-01-23T01:32:16.256Z,41.73
2019-01-23T01:34:46.506Z,45.03
2019-01-23T01:37:16.588Z,44.03
2019-01-23T01:39:46.852Z,41.97
2019-01-23T01:42:16.939Z,43.30
2019-01-23T01:44:47.171Z,43.80
2019-01-23T01:47:17.288Z,42.17
2019-01-23T01:49:47.378Z,44.47
2019-01-23T01:52:17.519Z,44.23
2019-01-23T01:54:47.688Z,48.30
2019-01-23T01:57:17.821Z,44.37
2019-01-23T01:59:47.971Z,43.57
2019-01-23T02:02:18.077Z,44.33
2019-01-23T02:04:48.236Z,43.37
2019-01-23T02:07:18.380Z,43.73
2019-01-23T02:09:48.455Z,45.17
2019-01-23T02:12:18.596Z,42.47
2019-01-23T02:14:49.080Z,43.80
2019-01-23T02:17:19.187Z,43.67
2019-01-23T02:19:49.265Z,43.47
2019-01-23T02:22:19.427Z,43.00
2019-01-23T02:24:49.538Z,46.83
2019-01-23T02:27:19.595Z,46.73
2019-01-23T02:29:49.738Z,43.90
2019-01-23T02:32:19.865Z,47.03
2019-01-23T02:34:49.983Z,43.17
2019-01-23T02:37:20.097Z,44.67
2019-01-23T02:39:50.213Z,44.00
2019-01-23T02:42:20.326Z,44.30
2019-01-23T02:44:50.469Z,46.67
2019-01-23T02:47:20.604Z,44.67
2019-01-23T02:49:50.756Z,42.53
2019-01-23T02:52:20.845Z,45.57
2019-01-23T02:54:50.965Z,46.07
2019-01-23T02:57:21.132Z,47.67
2019-01-23T02:59:51.226Z,46.87
2019-01-23T03:02:21.330Z,44.80
2019-01-23T03:04:51.480Z,45.17
2019-01-23T03:07:21.585Z,45.10
2019-01-23T03:09:51.818Z,43.20
2019-01-23T03:12:21.896Z,46.73
2019-01-23T03:14:52.023Z,44.10
2019-01-23T03:17:22.176Z,45.83
2019-01-23T03:19:52.276Z,45.23
2019-01-23T03:22:22.393Z,45.60
2019-01-23T03:24:52.701Z,42.83
2019-01-23T03:27:22.810Z,44.57
2019-01-23T03:29:52.951Z,45.30
2019-01-23T03:32:23.051Z,45.33
2019-01-23T03:34:53.113Z,46.50
2019-01-23T03:37:23.240Z,48.47
2019-01-23T03:39:53.792Z,47.57
2019-01-23T03:42:24.076Z,51.87
2019-01-23T03:44:54.156Z,51.30
2019-01-23T03:47:24.317Z,52.33
2019-01-23T03:49:54.491Z,52.63
2019-01-23T03:52:24.582Z,54.53
2019-01-23T03:54:55.036Z,59.43
2019-01-23T03:57:25.281Z,60.40
2019-01-23T03:59:55.405Z,59.80
2019-01-23T04:02:25.539Z,59.37
2019-01-23T04:04:55.666Z,59.87
2019-01-23T04:07:25.751Z,62.60
2019-01-23T04:09:56.245Z,62.37
2019-01-23T04:12:26.286Z,65.90
2019-01-23T04:14:56.397Z,67.40
2019-01-23T04:17:26.560Z,66.83
2019-01-23T04:19:56.599Z,73.33
2019-01-23T04:22:31.496Z,73.50
2019-01-23T04:25:01.876Z,75.67
2019-01-23T04:27:32.497Z,78.53
2019-01-23T04:30:02.615Z,79.10
2019-01-23T04:32:32.680Z,79.10
2019-01-23T04:35:02.882Z,82.40
2019-01-23T04:37:32.963Z,83.77
2019-01-23T04:40:03.188Z,81.03
2019-01-23T04:42:33.689Z,85.07
2019-01-23T04:45:03.890Z,84.27
2019-01-23T04:47:33.969Z,85.07
2019-01-23T04:50:04.580Z,83.37
2019-01-23T04:53:02.895Z,88.93
2019-01-23T04:55:34.039Z,85.43
2019-01-23T04:58:04.128Z,82.10
2019-01-23T05:00:36.352Z,85.93
2019-01-23T05:03:06.510Z,89.13
2019-01-23T05:05:36.603Z,89.97
2019-01-23T05:08:06.924Z,87.13
2019-01-23T05:10:37.033Z,92.27
2019-01-23T05:13:07.113Z,91.13
2019-01-23T05:15:37.282Z,95.50
2019-01-23T05:18:07.378Z,93.43
2019-01-23T05:20:37.586Z,96.17
2019-01-23T05:23:07.746Z,100.50
2019-01-23T05:25:37.936Z,100.37
2019-01-23T05:28:08.112Z,104.70
2019-01-23T05:30:39.083Z,100.73
2019-01-23T05:33:09.188Z,97.10
2019-01-23T05:35:41.184Z,103.53
2019-01-23T05:38:11.355Z,108.63
2019-01-23T05:40:41.446Z,106.90
2019-01-23T05:43:11.544Z,111.57
2019-01-23T05:45:42.835Z,112.10
2019-01-23T05:48:16.696Z,114.10
2019-01-23T05:50:48.091Z,112.63
2019-01-23T05:53:18.116Z,109.43
2019-01-23T05:55:50.096Z,113.97
2019-01-23T05:58:20.546Z,124.63
2019-01-23T06:00:50.697Z,117.07
2019-01-23T06:03:21.443Z,116.50
2019-01-23T06:05:52.066Z,118.00
2019-01-23T06:08:22.302Z,119.10
2019-01-23T06:10:52.506Z,116.47
2019-01-23T06:13:22.557Z,121.00
2019-01-23T06:15:52.645Z,117.73
2019-01-23T06:18:22.791Z,117.20
2019-01-23T06:20:52.913Z,116.87
2019-01-23T06:23:23.089Z,120.00
2019-01-23T06:25:53.194Z,119.13
2019-01-23T06:28:23.288Z,117.70
2019-01-23T06:30:54.295Z,116.87
2019-01-23T06:33:24.629Z,116.23
2019-01-23T06:36:04.035Z,114.80
2019-01-23T06:38:43.550Z,111.30
2019-01-23T06:41:21.813Z,113.53
2019-01-23T06:43:52.658Z,120.00
2019-01-23T06:46:22.812Z,130.17
2019-01-23T06:48:53.667Z,123.97
2019-01-23T06:51:26.105Z,123.70
2019-01-23T06:53:56.343Z,118.20
2019-01-23T06:56:26.707Z,119.87
2019-01-23T06:58:56.995Z,112.93
2019-01-23T07:01:27.636Z,113.83
2019-01-23T07:03:58.195Z,113.43
2019-01-23T07:06:28.964Z,112.13
2019-01-23T07:08:59.070Z,118.23
2019-01-23T07:11:30.460Z,118.97
2019-01-23T07:14:00.568Z,118.30
2019-01-23T07:16:30.761Z,118.33
2019-01-23T07:19:00.986Z,116.57
2019-01-23T07:21:31.141Z,122.70
2019-01-23T07:24:01.288Z,119.23
2019-01-23T07:26:31.346Z,116.77
2019-01-23T07:29:01.388Z,118.37
2019-01-23T07:31:35.084Z,117.27
2019-01-23T07:34:05.224Z,117.17
2019-01-23T07:36:35.561Z,110.00
2019-01-23T07:39:09.640Z,110.50
2019-01-23T07:41:39.844Z,114.43
2019-01-23T07:44:10.137Z,115.87
2019-01-23T07:46:41.512Z,114.47
2019-01-23T07:49:11.667Z,114.90
2019-01-23T07:51:42.370Z,111.53
2019-01-23T07:54:12.493Z,112.53
2019-01-23T07:56:42.733Z,113.63
2019-01-23T07:59:13.754Z,121.43
2019-01-23T08:01:43.871Z,109.27
2019-01-23T08:04:14.233Z,116.50
2019-01-23T08:06:44.370Z,111.53
2019-01-23T08:09:14.495Z,108.93
2019-01-23T08:11:44.703Z,110.77
2019-01-23T08:14:14.810Z,105.07
2019-01-23T08:16:45.017Z,106.30
2019-01-23T08:19:15.114Z,99.60
2019-01-23T08:21:45.288Z,103.17
2019-01-23T08:24:15.339Z,106.17
2019-01-23T08:26:48.580Z,102.60
2019-01-23T08:29:18.734Z,100.60
2019-01-23T08:31:48.830Z,103.30
2019-01-23T08:34:19.310Z,99.13
2019-01-23T08:36:49.368Z,101.07
2019-01-23T08:39:19.442Z,91.60
2019-01-23T08:41:49.631Z,95.67
2019-01-23T08:44:19.798Z,98.60
2019-01-23T08:46:49.940Z,91.87
2019-01-23T08:49:20.085Z,94.83
2019-01-23T08:51:50.133Z,90.73
2019-01-23T08:54:20.281Z,90.03
2019-01-23T08:56:50.449Z,94.37
2019-01-23T08:59:22.063Z,92.20
2019-01-23T09:01:52.205Z,99.30
2019-01-23T09:04:22.256Z,94.93
2019-01-23T09:06:52.327Z,96.80
2019-01-23T09:09:22.422Z,95.80
2019-01-23T09:11:52.547Z,87.40
2019-01-23T09:14:22.686Z,86.50
2019-01-23T09:16:52.761Z,89.10
2019-01-23T09:19:22.923Z,90.57
2019-01-23T09:21:53.126Z,85.03
2019-01-23T09:24:23.198Z,87.77
2019-01-23T09:26:53.497Z,84.40
2019-01-23T09:29:23.635Z,86.13
2019-01-23T09:32:01.607Z,85.57
2019-01-23T09:35:08.620Z,85.80
2019-01-23T09:38:07.528Z,86.70
2019-01-23T09:41:03.715Z,84.10
2019-01-23T09:44:20.569Z,87.87
2019-01-23T09:47:26.832Z,79.67
2019-01-23T09:50:40.137Z,81.10
2019-01-23T09:53:39.083Z,84.17
2019-01-23T09:56:09.241Z,82.90
2019-01-23T09:58:39.497Z,79.37
2019-01-23T10:01:09.594Z,80.77
2019-01-23T10:03:40.986Z,93.90
2019-01-23T10:06:11.287Z,87.23
2019-01-23T10:08:41.445Z,79.90
2019-01-23T10:11:11.859Z,81.93
2019-01-23T10:13:42.222Z,82.40
2019-01-23T10:16:19.706Z,77.43
2019-01-23T10:18:55.832Z,80.87
2019-01-23T10:21:23.241Z,79.17
2019-01-23T10:23:54.131Z,75.27
2019-01-23T10:26:24.226Z,76.77
2019-01-23T10:28:55.394Z,78.63
2019-01-23T10:31:26.419Z,76.50
2019-01-23T10:33:56.832Z,72.73
2019-01-23T10:36:26.912Z,73.50
2019-01-23T10:38:56.991Z,73.83
2019-01-23T10:41:27.772Z,72.53
2019-01-23T10:43:58.266Z,70.20
2019-01-23T10:46:28.697Z,65.80
2019-01-23T10:48:59.050Z,68.70
2019-01-23T10:51:29.506Z,70.67
2019-01-23T10:54:00.554Z,68.40
2019-01-23T10:56:30.704Z,67.47
2019-01-23T10:59:02.161Z,66.87
2019-01-23T11:01:35.526Z,63.33
2019-01-23T11:04:07.108Z,61.77
2019-01-23T11:06:40.579Z,60.20
2019-01-23T11:09:12.660Z,61.93
2019-01-23T11:11:45.930Z,61.20
2019-01-23T11:14:16.079Z,56.10
2019-01-23T11:16:46.156Z,56.60
2019-01-23T11:19:16.256Z,60.03
2019-01-23T11:21:46.399Z,61.30
2019-01-23T11:24:16.490Z,61.17
2019-01-23T11:26:46.756Z,58.73
2019-01-23T11:29:16.840Z,61.37
2019-01-23T11:31:47.032Z,58.37
2019-01-23T11:34:17.213Z,58.57
2019-01-23T11:36:47.287Z,61.03
2019-01-23T11:39:17.395Z,58.33
2019-01-23T11:41:48.359Z,58.53
2019-01-23T11:44:18.614Z,59.37
2019-01-23T11:46:48.796Z,56.13
2019-01-23T11:49:18.912Z,56.10
2019-01-23T11:51:49.025Z,54.73
2019-01-23T11:54:19.111Z,54.23
2019-01-23T11:56:49.327Z,52.53
2019-01-23T11:59:19.522Z,48.70
2019-01-23T12:01:49.645Z,49.67
2019-01-23T12:04:19.670Z,49.77
2019-01-23T12:06:49.824Z,50.07
2019-01-23T12:09:19.900Z,48.80
2019-01-23T12:11:50.030Z,49.93
2019-01-23T12:14:20.189Z,44.00
2019-01-23T12:16:50.267Z,45.00
2019-01-23T12:19:20.399Z,43.90
2019-01-23T12:21:50.498Z,47.90
2019-01-23T12:24:20.660Z,41.77
2019-01-23T12:26:50.868Z,43.77
2019-01-23T12:29:20.981Z,39.67
2019-01-23T12:31:51.081Z,40.93
2019-01-23T12:34:21.221Z,39.13
2019-01-23T12:36:51.237Z,39.03
2019-01-23T12:39:21.336Z,36.73
2019-01-23T12:41:52.646Z,37.37
2019-01-23T12:44:22.695Z,38.17
2019-01-23T12:46:52.820Z,37.07
2019-01-23T12:49:23.024Z,36.80
2019-01-23T12:51:53.087Z,34.93
2019-01-23T12:54:23.172Z,35.00
2019-01-23T12:56:53.314Z,36.53
2019-01-23T12:59:23.424Z,38.50
2019-01-23T13:01:53.482Z,33.60
2019-01-23T13:04:25.015Z,34.37
2019-01-23T13:06:55.231Z,34.50
2019-01-23T13:09:25.280Z,35.10
2019-01-23T13:11:55.359Z,33.63
2019-01-23T13:14:28.166Z,32.40
2019-01-23T13:16:58.258Z,32.40
2019-01-23T13:19:28.341Z,32.90
2019-01-23T13:21:58.897Z,34.27
2019-01-23T13:24:29.003Z,32.23
2019-01-23T13:26:59.023Z,34.63
2019-01-23T13:29:29.230Z,34.00
2019-01-23T13:31:59.322Z,31.43
2019-01-23T13:34:30.233Z,34.00
2019-01-23T13:37:00.604Z,30.40
2019-01-23T13:39:30.684Z,30.90
2019-01-23T13:42:00.772Z,28.97
2019-01-23T13:44:32.588Z,30.87
2019-01-23T13:47:02.776Z,30.47
2019-01-23T13:49:32.927Z,31.43
2019-01-23T13:52:03.185Z,27.10
2019-01-23T13:54:34.157Z,26.10
2019-01-23T13:57:04.286Z,26.20
2019-01-23T13:59:36.719Z,27.30
2019-01-23T14:02:07.123Z,25.80
2019-01-23T14:04:37.212Z,26.43
2019-01-23T14:07:07.387Z,26.67
2019-01-23T14:09:38.661Z,27.23
2019-01-23T14:12:13.856Z,27.00
2019-01-23T14:14:53.296Z,27.27
2019-01-23T14:17:32.052Z,27.03
2019-01-23T14:20:02.508Z,25.67
2019-01-23T14:22:32.662Z,26.97
2019-01-23T14:25:03.141Z,29.67
2019-01-23T14:27:33.495Z,25.83
2019-01-23T14:30:04.847Z,27.40
2019-01-23T14:32:34.938Z,27.80
2019-01-23T14:35:05.859Z,29.27
2019-01-23T14:37:36.039Z,26.27
2019-01-23T14:40:09.132Z,26.30
2019-01-23T14:42:45.972Z,26.43
2019-01-23T14:45:23.158Z,27.03
2019-01-23T14:47:53.783Z,26.13
2019-01-23T14:50:25.225Z,27.07
2019-01-23T14:52:59.408Z,26.47
2019-01-23T14:55:29.989Z,26.87
2019-01-23T14:58:00.809Z,26.73
2019-01-23T15:00:31.981Z,26.27
2019-01-23T15:03:02.550Z,26.77
2019-01-23T15:05:33.330Z,26.90
2019-01-23T15:08:04.246Z,25.97
2019-01-23T15:10:35.197Z,29.00
2019-01-23T15:13:06.563Z,26.73
2019-01-23T15:15:37.789Z,27.17
2019-01-23T15:18:08.568Z,28.13
2019-01-23T15:20:52.046Z,29.60
2019-01-23T15:23:38.017Z,27.00
2019-01-23T15:26:11.470Z,29.40
2019-01-23T15:28:45.696Z,30.67
2019-01-23T15:31:21.061Z,28.60
2019-01-23T15:33:52.364Z,32.97
2019-01-23T15:36:23.258Z,29.70
2019-01-23T15:38:53.783Z,30.60
2019-01-23T15:41:26.126Z,26.53
2019-01-23T15:44:00.110Z,29.43
2019-01-23T15:46:31.932Z,28.70
2019-01-23T15:49:02.211Z,28.00
2019-01-23T15:51:32.586Z,28.43
2019-01-23T15:54:03.557Z,28.70
2019-01-23T15:56:34.584Z,28.80
2019-01-23T15:59:05.330Z,31.40
2019-01-23T16:01:35.635Z,29.37
2019-01-23T16:04:06.943Z,29.37
2019-01-23T16:06:38.759Z,27.90
2019-01-23T16:09:09.619Z,27.03
2019-01-23T16:11:40.894Z,28.50
2019-01-23T16:14:11.257Z,25.47
2019-01-23T16:16:42.131Z,26.07
2019-01-23T16:19:12.626Z,28.43
2019-01-23T16:21:45.753Z,27.47
2019-01-23T16:24:15.915Z,26.00
2019-01-23T16:26:46.390Z,26.80
2019-01-23T16:29:19.585Z,25.97
2019-01-23T16:31:51.324Z,27.60
2019-01-23T16:34:22.474Z,27.20
2019-01-23T16:36:52.545Z,27.20
2019-01-23T16:39:22.625Z,29.53
2019-01-23T16:41:52.680Z,28.17
2019-01-23T16:44:24.674Z,29.20
2019-01-23T16:46:54.894Z,29.70
2019-01-23T16:49:25.387Z,30.33
2019-01-23T16:51:55.476Z,27.00
2019-01-23T16:54:25.660Z,33.92
2019-01-23T16:56:55.719Z,30.50
2019-01-23T16:59:25.867Z,29.27
2019-01-23T17:01:56.044Z,26.83
2019-01-23T17:04:26.236Z,27.13
2019-01-23T17:06:56.473Z,26.90
2019-01-23T17:09:26.572Z,26.20
2019-01-23T17:11:56.670Z,28.30
2019-01-23T17:14:26.824Z,25.80
2019-01-23T17:16:56.822Z,26.87
2019-01-23T17:19:27.033Z,27.10
2019-01-23T17:21:57.228Z,28.03
2019-01-23T17:24:27.656Z,27.30
2019-01-23T17:26:57.836Z,27.83
2019-01-23T17:29:30.810Z,27.90
2019-01-23T17:32:06.146Z,28.37
2019-01-23T17:34:36.640Z,24.97
2019-01-23T17:37:06.739Z,26.90
2019-01-23T17:39:37.593Z,26.47
2019-01-23T17:42:08.079Z,28.40
2019-01-23T17:44:38.356Z,25.90
2019-01-23T17:47:08.775Z,27.10
2019-01-23T17:49:38.942Z,29.10
2019-01-23T17:52:10.123Z,29.23
2019-01-23T17:54:40.678Z,28.70
2019-01-23T17:57:10.912Z,27.70
2019-01-23T17:59:41.081Z,27.40
2019-01-23T18:02:14.915Z,28.60
2019-01-23T18:04:45.071Z,32.73
2019-01-23T18:07:15.263Z,30.00
2019-01-23T18:09:46.535Z,30.67
2019-01-23T18:12:16.638Z,30.37
2019-01-23T18:14:49.167Z,29.47
2019-01-23T18:17:18.539Z,31.07
2019-01-23T18:19:48.733Z,29.93
2019-01-23T18:22:18.805Z,30.70
2019-01-23T18:24:48.893Z,30.03
2019-01-23T18:27:19.188Z,32.37
2019-01-23T18:29:50.355Z,30.53
2019-01-23T18:32:20.475Z,29.60
2019-01-23T18:35:43.734Z,32.23
2019-01-23T18:38:24.410Z,30.27
2019-01-23T18:41:24.953Z,32.53
2019-01-23T18:44:16.693Z,31.63
2019-01-23T18:47:10.591Z,31.13
2019-01-23T18:50:13.262Z,32.27
2019-01-23T18:52:43.388Z,31.20
2019-01-23T18:55:15.238Z,31.77
2019-01-23T18:57:45.397Z,33.13
2019-01-23T19:00:18.772Z,35.73
2019-01-23T19:02:48.867Z,32.87
2019-01-23T19:05:19.594Z,33.97
2019-01-23T19:07:56.759Z,34.03
2019-01-23T19:10:27.034Z,32.30
2019-01-23T19:12:58.107Z,34.43
2019-01-23T19:15:28.275Z,35.10
2019-01-23T19:17:58.514Z,37.47
2019-01-23T19:20:28.640Z,36.23
2019-01-23T19:22:58.832Z,31.47
2019-01-23T19:25:28.917Z,31.80
2019-01-23T19:28:02.554Z,29.23
2019-01-23T19:30:32.866Z,32.60
2019-01-23T19:33:03.514Z,30.57
2019-01-23T19:35:33.814Z,31.63
2019-01-23T19:38:05.243Z,33.43
2019-01-23T19:40:36.565Z,31.13
2019-01-23T19:43:07.197Z,31.60
2019-01-23T19:45:37.983Z,31.70
2019-01-23T19:48:08.424Z,30.93
2019-01-23T19:50:39.636Z,31.50
2019-01-23T19:53:10.355Z,30.43
2019-01-23T19:55:41.605Z,32.53
2019-01-23T19:58:12.490Z,33.03
2019-01-23T20:00:44.195Z,32.37
2019-01-23T20:03:20.438Z,32.73
2019-01-23T20:05:47.491Z,31.17
2019-01-23T20:08:17.840Z,32.80
2019-01-23T20:10:49.069Z,31.27
2019-01-23T20:13:19.136Z,32.97
2019-01-23T20:15:49.479Z,33.17
2019-01-23T20:18:19.723Z,34.67
2019-01-23T20:20:50.906Z,33.00
2019-01-23T20:23:21.249Z,28.97
2019-01-23T20:25:57.299Z,30.17
2019-01-23T20:28:27.417Z,32.57
2019-01-23T20:30:58.915Z,31.57
2019-01-23T20:33:29.170Z,33.03
2019-01-23T20:35:59.539Z,33.17
2019-01-23T20:38:29.994Z,32.10
2019-01-23T20:41:00.474Z,33.70
2019-01-23T20:43:31.788Z,31.77
2019-01-23T20:46:02.630Z,32.27
2019-01-23T20:48:32.859Z,32.50
2019-01-23T20:51:03.010Z,30.90
2019-01-23T20:53:36.704Z,31.33
2019-01-23T20:56:07.317Z,32.43
2019-01-23T20:58:37.678Z,32.23
2019-01-23T21:01:07.913Z,34.07
2019-01-23T21:03:39.489Z,31.90
2019-01-23T21:06:10.292Z,33.00
2019-01-23T21:08:41.848Z,33.77
2019-01-23T21:11:11.958Z,31.77
2019-01-23T21:13:44.069Z,33.13
2019-01-23T21:16:14.635Z,33.00
2019-01-23T21:18:48.303Z,32.27
2019-01-23T21:21:18.342Z,33.87
2019-01-23T21:23:48.886Z,32.57
2019-01-23T21:26:18.936Z,33.30
2019-01-23T21:28:49.054Z,31.70
2019-01-23T21:31:19.637Z,30.30
2019-01-23T21:33:49.762Z,35.43
2019-01-23T21:36:19.981Z,31.73
2019-01-23T21:38:50.254Z,31.17
2019-01-23T21:41:21.311Z,32.40
2019-01-23T21:43:51.598Z,32.77
2019-01-23T21:46:22.679Z,31.10
2019-01-23T21:48:55.597Z,31.37
2019-01-23T21:51:26.291Z,31.30
2019-01-23T21:54:15.369Z,31.43
2019-01-23T21:56:45.882Z,29.73
2019-01-23T21:59:15.986Z,30.77
2019-01-23T22:01:46.527Z,32.17
2019-01-23T22:04:16.593Z,30.67
2019-01-23T22:06:47.444Z,32.87
2019-01-23T22:09:17.520Z,30.30
2019-01-23T22:11:47.804Z,32.67
2019-01-23T22:14:17.856Z,31.37
2019-01-23T22:16:48.130Z,32.87
2019-01-23T22:19:18.355Z,30.70
2019-01-23T22:21:48.426Z,30.50
2019-01-23T22:24:18.598Z,30.00
2019-01-23T22:26:48.768Z,31.67
2019-01-23T22:29:18.915Z,31.77
2019-01-23T22:31:49.046Z,30.80
2019-01-23T22:34:19.125Z,30.97
2019-01-23T22:36:49.296Z,29.63
2019-01-23T22:39:23.301Z,29.27
2019-01-23T22:41:53.380Z,28.90
2019-01-23T22:44:23.444Z,30.87
2019-01-23T22:46:53.513Z,28.50
2019-01-23T22:49:23.597Z,31.00
2019-01-23T22:51:53.678Z,29.33
2019-01-23T22:54:23.742Z,30.73
2019-01-23T22:56:53.898Z,28.63
2019-01-23T22:59:24.006Z,30.73
2019-01-23T23:01:54.135Z,31.43
2019-01-23T23:04:24.259Z,32.37
2019-01-23T23:06:54.383Z,30.47
2019-01-23T23:09:24.571Z,30.93
2019-01-23T23:11:54.694Z,30.07
2019-01-23T23:14:24.773Z,29.77
2019-01-23T23:16:54.932Z,30.70
2019-01-23T23:19:25.154Z,29.07
2019-01-23T23:21:55.294Z,29.20
2019-01-23T23:24:25.423Z,29.80
2019-01-23T23:26:55.577Z,28.47
2019-01-23T23:29:25.657Z,30.77
2019-01-23T23:31:55.829Z,30.90
2019-01-23T23:34:26.024Z,30.80
2019-01-23T23:36:56.196Z,31.90
2019-01-23T23:39:26.375Z,30.50
2019-01-23T23:41:57.834Z,29.93
2019-01-23T23:44:28.092Z,31.03
2019-01-23T23:46:58.206Z,31.03
2019-01-23T23:49:28.341Z,29.67
2019-01-23T23:52:00.066Z,30.43
2019-01-23T23:54:30.268Z,31.43
2019-01-23T23:57:00.464Z,28.93
2019-01-23T23:59:30.629Z,31.00
